createdAt,value
2018-12-29T00:01:32.015Z,37.27
2018-12-29T00:04:03.566Z,39.20
2018-12-29T00:06:35.206Z,39.07
2018-12-29T00:09:09.335Z,30.70
2018-12-29T00:11:40.776Z,27.33
2018-12-29T00:14:12.790Z,43.33
2018-12-29T00:16:44.464Z,32.10
2018-12-29T00:19:16.086Z,28.93
2018-12-29T00:21:47.762Z,28.07
2018-12-29T00:24:19.131Z,27.40
2018-12-29T00:26:52.632Z,27.03
2018-12-29T00:29:24.986Z,26.63
2018-12-29T00:31:56.644Z,26.63
2018-12-29T00:34:28.127Z,28.60
2018-12-29T00:37:00.172Z,31.07
2018-12-29T00:39:39.318Z,27.70
2018-12-29T00:42:06.640Z,37.17
2018-12-29T00:44:40.127Z,30.03
2018-12-29T00:47:11.959Z,31.37
2018-12-29T00:49:43.640Z,30.00
2018-12-29T00:52:15.506Z,27.83
2018-12-29T00:54:47.576Z,28.90
2018-12-29T00:57:21.388Z,26.90
2018-12-29T00:59:53.910Z,29.07
2018-12-29T01:02:25.551Z,27.97
2018-12-29T01:04:57.588Z,27.80
2018-12-29T01:07:29.051Z,27.43
2018-12-29T01:10:00.975Z,25.70
2018-12-29T01:12:33.394Z,26.87
2018-12-29T01:15:09.809Z,26.67
2018-12-29T01:17:38.225Z,29.33
2018-12-29T01:20:10.108Z,26.00
2018-12-29T01:22:42.263Z,26.83
2018-12-29T01:25:14.240Z,25.10
2018-12-29T01:27:47.520Z,29.93
2018-12-29T01:30:19.564Z,28.53
2018-12-29T01:32:51.118Z,25.43
2018-12-29T01:35:22.597Z,25.37
2018-12-29T01:37:54.004Z,25.23
2018-12-29T01:40:27.242Z,25.63
2018-12-29T01:42:58.853Z,26.00
2018-12-29T01:45:30.630Z,25.37
2018-12-29T01:48:02.119Z,25.60
2018-12-29T01:50:35.282Z,25.33
2018-12-29T01:53:06.614Z,25.47
2018-12-29T01:55:38.432Z,24.37
2018-12-29T01:58:10.726Z,24.67
2018-12-29T02:00:44.344Z,24.03
2018-12-29T02:03:15.782Z,25.20
2018-12-29T02:05:47.282Z,24.63
2018-12-29T02:08:18.600Z,24.90
2018-12-29T02:10:51.176Z,24.13
2018-12-29T02:13:22.576Z,24.90
2018-12-29T02:15:54.760Z,24.23
2018-12-29T02:18:26.506Z,24.60
2018-12-29T02:20:58.410Z,25.27
2018-12-29T02:23:30.766Z,26.07
2018-12-29T02:26:02.423Z,26.23
2018-12-29T02:28:33.924Z,24.10
2018-12-29T02:31:06.813Z,23.97
2018-12-29T02:33:38.898Z,24.97
2018-12-29T02:36:10.533Z,25.27
2018-12-29T02:38:44.053Z,23.77
2018-12-29T02:41:17.217Z,24.73
2018-12-29T02:43:48.862Z,25.07
2018-12-29T02:46:22.071Z,25.23
2018-12-29T02:48:55.738Z,25.00
2018-12-29T02:51:27.223Z,25.03
2018-12-29T02:53:58.770Z,23.90
2018-12-29T02:56:30.759Z,24.67
2018-12-29T02:59:02.347Z,24.03
2018-12-29T03:01:35.589Z,24.13
2018-12-29T03:04:07.515Z,24.80
2018-12-29T03:06:39.527Z,23.93
2018-12-29T03:09:11.017Z,25.03
2018-12-29T03:11:42.496Z,24.27
2018-12-29T03:14:15.582Z,26.00
2018-12-29T03:16:47.115Z,24.80
2018-12-29T03:19:18.686Z,24.10
2018-12-29T03:21:50.203Z,24.97
2018-12-29T03:24:22.733Z,25.47
2018-12-29T03:26:54.748Z,24.00
2018-12-29T03:29:26.698Z,24.00
2018-12-29T03:31:59.976Z,23.63
2018-12-29T03:34:32.143Z,23.87
2018-12-29T03:37:03.789Z,24.80
2018-12-29T03:39:35.527Z,23.97
2018-12-29T03:42:09.730Z,22.73
2018-12-29T03:44:42.309Z,23.97
2018-12-29T03:47:14.359Z,23.27
2018-12-29T03:49:46.073Z,25.13
2018-12-29T03:52:17.625Z,22.83
2018-12-29T03:54:49.272Z,23.90
2018-12-29T03:57:22.093Z,23.67
2018-12-29T03:59:53.830Z,23.33
2018-12-29T04:02:26.585Z,22.13
2018-12-29T04:04:58.149Z,23.13
2018-12-29T04:07:29.766Z,21.97
2018-12-29T04:10:01.647Z,22.47
2018-12-29T04:12:36.136Z,22.23
2018-12-29T04:15:08.159Z,22.63
2018-12-29T04:17:57.456Z,21.90
2018-12-29T04:20:29.063Z,22.07
2018-12-29T04:23:01.268Z,21.90
2018-12-29T04:25:33.121Z,24.00
2018-12-29T04:28:04.550Z,22.70
2018-12-29T04:30:36.131Z,21.33
2018-12-29T04:33:07.656Z,22.17
2018-12-29T04:35:41.230Z,23.50
2018-12-29T04:38:13.182Z,21.93
2018-12-29T04:40:45.206Z,21.93
2018-12-29T04:43:17.287Z,22.20
2018-12-29T04:45:49.530Z,22.43
2018-12-29T04:48:21.524Z,21.50
2018-12-29T04:50:53.299Z,22.00
2018-12-29T04:53:25.268Z,21.50
2018-12-29T04:55:57.428Z,22.10
2018-12-29T04:58:29.370Z,22.53
2018-12-29T05:01:00.917Z,21.87
2018-12-29T05:03:32.706Z,22.73
2018-12-29T05:06:04.666Z,20.40
2018-12-29T05:08:38.909Z,22.07
2018-12-29T05:11:10.662Z,21.90
2018-12-29T05:13:42.644Z,22.70
2018-12-29T05:16:15.167Z,21.40
2018-12-29T05:18:47.677Z,21.63
2018-12-29T05:21:19.240Z,21.27
2018-12-29T05:23:50.630Z,21.27
2018-12-29T05:26:22.477Z,22.13
2018-12-29T05:28:54.173Z,23.33
2018-12-29T05:31:26.095Z,22.13
2018-12-29T05:33:59.128Z,22.33
2018-12-29T05:36:31.305Z,21.63
2018-12-29T05:39:02.935Z,21.90
2018-12-29T05:41:34.489Z,22.07
2018-12-29T05:44:06.045Z,21.97
2018-12-29T05:46:37.524Z,21.87
2018-12-29T05:49:09.265Z,21.57
2018-12-29T05:51:40.946Z,21.20
2018-12-29T05:54:13.400Z,21.57
2018-12-29T05:56:45.351Z,20.83
2018-12-29T05:59:16.833Z,21.40
2018-12-29T06:01:50.387Z,21.73
2018-12-29T06:04:22.647Z,23.13
2018-12-29T06:06:54.250Z,22.63
2018-12-29T06:09:26.359Z,22.20
2018-12-29T06:11:58.279Z,22.33
2018-12-29T06:14:30.006Z,22.30
2018-12-29T06:17:01.752Z,21.67
2018-12-29T06:19:33.431Z,22.07
2018-12-29T06:22:05.738Z,21.63
2018-12-29T06:24:37.609Z,23.03
2018-12-29T06:27:09.343Z,22.37
2018-12-29T06:29:41.934Z,22.13
2018-12-29T06:32:14.003Z,22.20
2018-12-29T06:34:46.729Z,23.90
2018-12-29T06:37:18.571Z,23.73
2018-12-29T06:39:49.997Z,26.47
2018-12-29T06:42:21.644Z,28.27
2018-12-29T06:44:53.413Z,40.57
2018-12-29T06:47:25.827Z,35.90
2018-12-29T06:49:58.517Z,26.80
2018-12-29T06:52:30.545Z,23.80
2018-12-29T06:55:02.485Z,24.07
2018-12-29T06:57:34.152Z,23.63
2018-12-29T07:00:05.843Z,26.97
2018-12-29T07:02:38.682Z,29.77
2018-12-29T07:05:10.121Z,25.23
2018-12-29T07:07:42.075Z,31.40
2018-12-29T07:10:13.786Z,29.67
2018-12-29T07:12:47.677Z,26.60
2018-12-29T07:15:19.168Z,32.20
2018-12-29T07:17:50.666Z,31.00
2018-12-29T07:20:22.479Z,29.60
2018-12-29T07:22:54.278Z,46.20
2018-12-29T07:25:25.808Z,35.80
2018-12-29T07:27:57.574Z,29.80
2018-12-29T07:30:29.333Z,26.73
2018-12-29T07:33:00.806Z,26.80
2018-12-29T07:36:10.295Z,42.77
2018-12-29T07:38:44.984Z,48.97
2018-12-29T07:41:16.500Z,63.37
2018-12-29T07:43:48.309Z,38.20
2018-12-29T07:46:21.832Z,47.23
2018-12-29T07:48:53.962Z,31.37
2018-12-29T07:51:29.653Z,41.60
2018-12-29T07:54:01.718Z,27.63
2018-12-29T07:56:33.315Z,28.27
2018-12-29T07:59:05.236Z,23.00
2018-12-29T08:01:37.834Z,26.77
2018-12-29T08:04:11.279Z,25.00
2018-12-29T08:06:42.912Z,26.13
2018-12-29T08:09:16.329Z,23.90
2018-12-29T08:11:48.037Z,25.13
2018-12-29T08:14:20.050Z,24.07
2018-12-29T08:16:56.776Z,24.20
2018-12-29T08:19:24.811Z,25.57
2018-12-29T08:21:57.282Z,24.53
2018-12-29T08:24:30.068Z,25.57
2018-12-29T08:27:01.436Z,23.93
2018-12-29T08:29:33.652Z,24.37
2018-12-29T08:32:05.425Z,24.50
2018-12-29T08:34:37.345Z,23.73
2018-12-29T08:37:09.289Z,23.03
2018-12-29T08:39:42.913Z,23.50
2018-12-29T08:42:14.646Z,22.97
2018-12-29T08:44:46.529Z,23.83
2018-12-29T08:47:18.350Z,23.27
2018-12-29T08:49:50.313Z,22.97
2018-12-29T08:52:23.265Z,23.03
2018-12-29T08:54:56.037Z,22.43
2018-12-29T08:57:27.526Z,23.33
2018-12-29T08:59:59.303Z,22.20
2018-12-29T09:02:31.869Z,24.97
2018-12-29T09:05:03.629Z,33.10
2018-12-29T09:07:36.733Z,28.10
2018-12-29T09:10:08.252Z,32.83
2018-12-29T09:12:40.027Z,25.10
2018-12-29T09:15:11.681Z,29.90
2018-12-29T09:17:43.311Z,27.10
2018-12-29T09:20:15.672Z,28.47
2018-12-29T09:22:47.417Z,26.60
2018-12-29T09:25:22.112Z,26.10
2018-12-29T09:27:54.191Z,23.60
2018-12-29T09:30:26.172Z,24.30
2018-12-29T09:32:57.853Z,25.60
2018-12-29T09:35:29.741Z,24.43
2018-12-29T09:38:02.433Z,24.60
2018-12-29T09:40:34.225Z,23.83
2018-12-29T09:43:06.179Z,29.27
2018-12-29T09:45:39.509Z,24.97
2018-12-29T09:48:12.875Z,24.47
2018-12-29T09:50:44.958Z,30.67
2018-12-29T09:53:17.173Z,26.73
2018-12-29T09:55:49.166Z,25.17
2018-12-29T09:58:21.826Z,23.93
2018-12-29T10:00:53.727Z,25.57
2018-12-29T10:03:25.646Z,25.70
2018-12-29T10:05:58.344Z,26.10
2018-12-29T10:08:30.494Z,26.93
2018-12-29T10:11:02.040Z,28.67
2018-12-29T10:13:34.116Z,26.57
2018-12-29T10:16:06.317Z,22.70
2018-12-29T10:18:38.393Z,24.17
2018-12-29T10:21:10.063Z,23.43
2018-12-29T10:23:43.230Z,23.10
2018-12-29T10:26:15.675Z,26.20
2018-12-29T10:28:47.502Z,23.77
2018-12-29T10:31:20.242Z,25.97
2018-12-29T10:33:51.932Z,24.37
2018-12-29T10:36:23.500Z,25.03
2018-12-29T10:38:55.520Z,23.37
2018-12-29T10:41:27.339Z,24.43
2018-12-29T10:43:59.327Z,24.63
2018-12-29T10:46:31.160Z,23.00
2018-12-29T10:49:02.984Z,24.40
2018-12-29T10:51:34.546Z,24.43
2018-12-29T10:54:06.227Z,23.83
2018-12-29T10:56:38.119Z,24.83
2018-12-29T10:59:09.774Z,25.43
2018-12-29T11:01:41.555Z,25.53
2018-12-29T11:04:13.464Z,29.60
2018-12-29T11:06:46.571Z,30.17
2018-12-29T11:09:18.481Z,30.67
2018-12-29T11:11:51.435Z,26.47
2018-12-29T11:14:22.926Z,26.87
2018-12-29T11:16:55.599Z,27.87
2018-12-29T11:19:30.293Z,24.73
2018-12-29T11:22:01.867Z,26.37
2018-12-29T11:24:34.461Z,25.20
2018-12-29T11:27:09.415Z,25.60
2018-12-29T11:29:41.317Z,25.73
2018-12-29T11:32:14.808Z,26.77
2018-12-29T11:34:46.381Z,27.67
2018-12-29T11:37:18.065Z,27.73
2018-12-29T11:39:51.188Z,34.73
2018-12-29T11:42:23.271Z,29.67
2018-12-29T11:44:56.454Z,30.03
2018-12-29T11:47:30.365Z,29.10
2018-12-29T11:50:02.089Z,27.63
2018-12-29T11:52:33.853Z,28.87
2018-12-29T11:55:05.908Z,27.70
2018-12-29T11:57:37.446Z,28.97
2018-12-29T12:00:10.162Z,28.20
2018-12-29T12:02:43.188Z,28.80
2018-12-29T12:05:14.953Z,28.27
2018-12-29T12:07:49.806Z,28.53
2018-12-29T12:10:21.976Z,29.03
2018-12-29T12:12:54.771Z,27.83
2018-12-29T12:15:27.878Z,27.53
2018-12-29T12:17:59.538Z,28.03
2018-12-29T12:20:31.806Z,27.43
2018-12-29T12:23:03.437Z,26.43
2018-12-29T12:25:35.119Z,27.03
2018-12-29T12:28:09.938Z,27.07
2018-12-29T12:30:41.900Z,27.10
2018-12-29T12:33:14.102Z,25.57
2018-12-29T12:35:46.255Z,25.60
2018-12-29T12:38:18.927Z,24.67
2018-12-29T12:40:50.542Z,24.67
2018-12-29T12:43:23.909Z,24.50
2018-12-29T12:45:58.814Z,24.03
2018-12-29T12:48:31.235Z,24.33
2018-12-29T12:51:04.020Z,26.17
2018-12-29T12:53:35.714Z,25.40
2018-12-29T12:56:07.626Z,24.17
2018-12-29T12:58:39.278Z,24.83
2018-12-29T13:01:11.749Z,24.60
2018-12-29T13:03:43.499Z,24.37
2018-12-29T13:06:18.392Z,24.37
2018-12-29T13:08:50.933Z,25.07
2018-12-29T13:11:22.572Z,26.33
2018-12-29T13:13:54.666Z,40.83
2018-12-29T13:16:26.886Z,38.27
2018-12-29T13:18:58.546Z,43.90
2018-12-29T13:21:31.615Z,47.43
2018-12-29T13:24:03.627Z,37.13
2018-12-29T13:26:36.176Z,41.10
2018-12-29T13:29:09.261Z,29.23
2018-12-29T13:31:42.913Z,26.63
2018-12-29T13:34:14.497Z,30.60
2018-12-29T13:36:48.138Z,26.33
2018-12-29T13:39:21.521Z,26.43
2018-12-29T13:41:53.632Z,24.43
2018-12-29T13:44:25.265Z,24.77
2018-12-29T13:46:57.109Z,27.40
2018-12-29T13:49:29.554Z,26.00
2018-12-29T13:52:01.333Z,23.27
2018-12-29T13:54:33.527Z,22.97
2018-12-29T13:57:05.421Z,23.40
2018-12-29T13:59:37.613Z,22.00
2018-12-29T14:02:09.731Z,23.90
2018-12-29T14:04:41.737Z,23.33
2018-12-29T14:07:13.306Z,22.67
2018-12-29T14:09:45.314Z,22.77
2018-12-29T14:12:18.334Z,22.40
2018-12-29T14:14:50.247Z,23.83
2018-12-29T14:17:22.503Z,22.27
2018-12-29T14:19:54.385Z,22.37
2018-12-29T14:22:27.145Z,22.93
2018-12-29T14:24:59.010Z,26.83
2018-12-29T14:27:30.630Z,23.20
2018-12-29T14:30:02.871Z,22.23
2018-12-29T14:32:34.958Z,21.83
2018-12-29T14:35:07.102Z,22.40
2018-12-29T14:37:38.806Z,23.30
2018-12-29T14:40:12.234Z,20.10
2018-12-29T14:42:45.236Z,20.83
2018-12-29T14:45:16.918Z,22.23
2018-12-29T14:47:48.818Z,20.50
2018-12-29T14:50:23.416Z,23.90
2018-12-29T14:52:55.421Z,19.60
2018-12-29T14:55:26.960Z,20.40
2018-12-29T14:57:58.810Z,20.60
2018-12-29T15:00:33.673Z,19.13
2018-12-29T15:03:05.183Z,18.57
2018-12-29T15:05:37.194Z,18.03
2018-12-29T15:08:09.129Z,18.23
2018-12-29T15:10:41.263Z,18.17
2018-12-29T15:13:13.242Z,18.17
2018-12-29T15:15:45.906Z,17.00
2018-12-29T15:18:17.978Z,17.60
2018-12-29T15:20:50.176Z,17.43
2018-12-29T15:23:22.082Z,18.73
2018-12-29T15:25:55.168Z,17.23
2018-12-29T15:28:27.587Z,18.03
2018-12-29T15:30:59.263Z,18.37
2018-12-29T15:33:32.669Z,18.00
2018-12-29T15:36:04.429Z,18.60
2018-12-29T15:38:36.125Z,19.27
2018-12-29T15:41:07.903Z,18.97
2018-12-29T15:43:39.876Z,17.53
2018-12-29T15:46:11.719Z,18.20
2018-12-29T15:48:50.833Z,18.07
2018-12-29T15:51:16.753Z,17.87
2018-12-29T15:53:48.247Z,16.50
2018-12-29T15:56:20.479Z,17.07
2018-12-29T15:58:51.883Z,16.47
2018-12-29T16:01:24.000Z,17.27
2018-12-29T16:03:57.467Z,15.57
2018-12-29T16:06:29.757Z,14.67
2018-12-29T16:09:01.528Z,13.17
2018-12-29T16:11:34.940Z,12.60
2018-12-29T16:14:06.980Z,12.97
2018-12-29T16:16:38.706Z,11.90
2018-12-29T16:19:10.414Z,12.27
2018-12-29T16:21:42.024Z,13.03
2018-12-29T16:24:14.163Z,12.07
2018-12-29T16:26:46.004Z,11.37
2018-12-29T16:29:17.853Z,11.77
2018-12-29T16:31:50.623Z,11.80
2018-12-29T16:34:23.464Z,10.23
2018-12-29T16:36:55.134Z,9.63
2018-12-29T16:39:26.892Z,8.90
2018-12-29T16:41:58.771Z,8.47
2018-12-29T16:44:31.325Z,8.53
2018-12-29T16:47:03.035Z,7.60
2018-12-29T16:49:35.653Z,7.67
2018-12-29T16:52:07.168Z,7.20
2018-12-29T16:54:39.275Z,7.40
2018-12-29T16:57:11.312Z,7.13
2018-12-29T16:59:43.011Z,6.73
2018-12-29T17:02:14.795Z,6.43
2018-12-29T17:04:46.441Z,6.67
2018-12-29T17:07:19.965Z,7.37
2018-12-29T17:09:51.910Z,6.13
2018-12-29T17:12:23.662Z,6.30
2018-12-29T17:14:55.674Z,6.30
2018-12-29T17:17:27.600Z,6.13
2018-12-29T17:20:00.412Z,7.03
2018-12-29T17:22:33.420Z,6.40
2018-12-29T17:25:05.588Z,6.60
2018-12-29T17:27:37.170Z,6.43
2018-12-29T17:30:09.591Z,6.23
2018-12-29T17:32:42.089Z,6.43
2018-12-29T17:35:13.594Z,6.30
2018-12-29T17:37:45.618Z,6.47
2018-12-29T17:40:25.439Z,8.00
2018-12-29T17:42:58.994Z,5.93
2018-12-29T17:45:32.598Z,6.87
2018-12-29T17:48:04.103Z,7.57
2018-12-29T17:50:36.946Z,7.30
2018-12-29T17:53:08.534Z,7.20
2018-12-29T17:55:40.612Z,8.23
2018-12-29T17:58:19.297Z,7.70
2018-12-29T18:00:52.224Z,7.13
2018-12-29T18:03:24.470Z,6.93
2018-12-29T18:05:56.228Z,7.67
2018-12-29T18:08:27.980Z,7.43
2018-12-29T18:10:59.713Z,8.03
2018-12-29T18:13:31.120Z,9.07
2018-12-29T18:16:04.141Z,8.97
2018-12-29T18:18:41.467Z,7.43
2018-12-29T18:21:14.189Z,9.70
2018-12-29T18:23:45.768Z,8.93
2018-12-29T18:26:20.106Z,9.33
2018-12-29T18:28:51.856Z,9.47
2018-12-29T18:31:26.419Z,9.23
2018-12-29T18:34:01.286Z,9.33
2018-12-29T18:36:33.028Z,11.60
2018-12-29T18:39:05.405Z,12.50
2018-12-29T18:41:38.811Z,11.17
2018-12-29T18:44:11.245Z,11.17
2018-12-29T18:46:43.210Z,10.83
2018-12-29T18:49:15.340Z,9.80
2018-12-29T18:51:47.281Z,9.77
2018-12-29T18:54:18.813Z,10.53
2018-12-29T18:56:50.599Z,9.73
2018-12-29T18:59:22.252Z,10.60
2018-12-29T19:01:57.757Z,9.50
2018-12-29T19:04:27.095Z,14.90
2018-12-29T19:06:59.085Z,11.10
2018-12-29T19:09:31.741Z,12.20
2018-12-29T19:12:10.933Z,11.50
2018-12-29T19:14:37.623Z,10.00
2018-12-29T19:17:09.637Z,10.57
2018-12-29T19:19:46.276Z,8.77
2018-12-29T19:22:16.261Z,7.70
2018-12-29T19:24:48.443Z,7.53
2018-12-29T19:27:20.353Z,6.33
2018-12-29T19:29:53.801Z,5.97
2018-12-29T19:32:25.343Z,5.70
2018-12-29T19:34:57.980Z,5.50
2018-12-29T19:37:40.424Z,4.93
2018-12-29T19:40:18.019Z,4.33
2018-12-29T19:42:52.452Z,4.53
2018-12-29T19:45:24.155Z,4.77
2018-12-29T19:47:56.826Z,4.20
2018-12-29T19:50:30.473Z,3.63
2018-12-29T19:53:02.644Z,3.87
2018-12-29T19:55:34.270Z,3.20
2018-12-29T19:58:06.265Z,4.27
2018-12-29T20:00:38.098Z,2.83
2018-12-29T20:03:15.162Z,3.30
2018-12-29T20:05:46.649Z,2.77
2018-12-29T20:08:18.285Z,3.10
2018-12-29T20:10:49.995Z,2.80
2018-12-29T20:13:21.904Z,3.37
2018-12-29T20:15:53.405Z,2.87
2018-12-29T20:18:24.940Z,2.80
2018-12-29T20:20:56.995Z,2.40
2018-12-29T20:23:28.884Z,2.90
2018-12-29T20:26:01.397Z,2.60
2018-12-29T20:28:34.061Z,3.00
2018-12-29T20:31:05.649Z,2.53
2018-12-29T20:33:37.162Z,2.50
2018-12-29T20:36:10.479Z,2.53
2018-12-29T20:38:42.829Z,2.57
2018-12-29T20:41:14.554Z,2.47
2018-12-29T20:43:45.924Z,2.40
2018-12-29T20:46:17.530Z,2.67
2018-12-29T20:48:50.783Z,3.07
2018-12-29T20:51:22.504Z,2.90
2018-12-29T20:53:57.122Z,2.40
2018-12-29T20:56:28.860Z,2.30
2018-12-29T20:59:01.966Z,2.70
2018-12-29T21:01:33.797Z,2.57
2018-12-29T21:04:06.569Z,2.57
2018-12-29T21:06:38.144Z,2.30
2018-12-29T21:09:09.582Z,2.40
2018-12-29T21:11:43.060Z,2.70
2018-12-29T21:14:14.571Z,2.47
2018-12-29T21:16:46.130Z,2.60
2018-12-29T21:19:17.989Z,2.23
2018-12-29T21:21:50.136Z,2.40
2018-12-29T21:24:21.790Z,2.77
2018-12-29T21:26:55.543Z,2.10
2018-12-29T21:29:27.347Z,2.57
2018-12-29T21:31:59.213Z,2.90
2018-12-29T21:34:30.800Z,2.27
2018-12-29T21:37:03.295Z,2.93
2018-12-29T21:39:34.876Z,2.30
2018-12-29T21:42:06.609Z,2.57
2018-12-29T21:44:38.086Z,2.37
2018-12-29T21:47:10.881Z,2.20
2018-12-29T21:49:44.217Z,2.40
2018-12-29T21:52:15.804Z,2.60
2018-12-29T21:54:47.824Z,2.60
2018-12-29T21:57:19.739Z,2.37
2018-12-29T21:59:53.398Z,2.33
2018-12-29T22:02:25.084Z,2.43
2018-12-29T22:04:57.525Z,2.47
2018-12-29T22:07:30.226Z,2.97
2018-12-29T22:10:02.503Z,2.40
2018-12-29T22:12:35.417Z,2.80
2018-12-29T22:15:14.331Z,2.60
2018-12-29T22:17:48.409Z,2.53
2018-12-29T22:20:33.224Z,3.33
2018-12-29T22:23:12.717Z,2.77
2018-12-29T22:25:47.995Z,2.80
2018-12-29T22:28:14.473Z,2.90
2018-12-29T22:30:46.338Z,3.37
2018-12-29T22:33:18.300Z,3.60
2018-12-29T22:35:49.941Z,3.53
2018-12-29T22:38:21.828Z,3.70
2018-12-29T22:40:53.614Z,3.00
2018-12-29T22:43:25.265Z,3.30
2018-12-29T22:45:56.704Z,2.93
2018-12-29T22:48:30.624Z,2.80
2018-12-29T22:51:02.803Z,2.73
2018-12-29T22:53:34.409Z,2.70
2018-12-29T22:56:06.212Z,3.20
2018-12-29T22:58:37.991Z,2.80
2018-12-29T23:01:09.483Z,2.83
2018-12-29T23:03:43.720Z,3.33
2018-12-29T23:06:17.344Z,3.07
2018-12-29T23:08:49.043Z,2.80
2018-12-29T23:11:20.884Z,3.13
2018-12-29T23:13:52.392Z,2.90
2018-12-29T23:16:24.999Z,2.87
2018-12-29T23:18:57.413Z,2.90
2018-12-29T23:21:28.947Z,2.97
2018-12-29T23:24:02.210Z,3.13
2018-12-29T23:26:34.117Z,3.30
2018-12-29T23:29:06.889Z,3.23
2018-12-29T23:31:39.482Z,2.93
2018-12-29T23:34:11.238Z,3.20
2018-12-29T23:36:44.133Z,2.70
2018-12-29T23:39:15.686Z,3.07
2018-12-29T23:41:47.768Z,3.07
2018-12-29T23:44:19.707Z,3.30
2018-12-29T23:46:51.472Z,2.90
2018-12-29T23:49:23.243Z,2.90
2018-12-29T23:51:55.362Z,3.33
2018-12-29T23:54:27.163Z,3.00
2018-12-29T23:56:59.358Z,2.77
2018-12-29T23:59:31.092Z,3.13
